createdAt,value
2023-04-28T00:03:44.213Z,46.59
2023-04-28T00:08:41.429Z,46.54
2023-04-28T00:13:38.026Z,46.60
2023-04-28T00:18:34.743Z,46.94
2023-04-28T00:23:31.346Z,45.94
2023-04-28T00:33:28.148Z,45.80
2023-04-28T00:38:24.918Z,44.85
2023-04-28T00:43:21.527Z,44.71
2023-04-28T00:48:19.365Z,44.26
2023-04-28T00:53:15.938Z,44.95
2023-04-28T00:58:12.532Z,44.98
2023-04-28T01:03:09.273Z,45.06
2023-04-28T01:08:06.864Z,45.22
2023-04-28T01:13:06.707Z,45.70
2023-04-28T01:18:03.738Z,44.28
2023-04-28T01:23:01.142Z,44.87
2023-04-28T01:27:59.435Z,44.97
2023-04-28T01:32:56.296Z,43.95
2023-04-28T01:37:52.767Z,43.67
2023-04-28T01:42:49.416Z,43.66
2023-04-28T01:47:46.620Z,42.79
2023-04-28T01:52:43.397Z,44.65
2023-04-28T01:57:43.021Z,45.01
2023-04-28T02:02:40.414Z,44.58
2023-04-28T02:07:38.761Z,44.49
2023-04-28T02:12:35.538Z,45.10
2023-04-28T02:17:32.274Z,45.41
2023-04-28T02:22:28.794Z,45.98
2023-04-28T02:27:26.450Z,46.20
2023-04-28T02:32:26.585Z,45.84
2023-04-28T02:37:23.635Z,45.98
2023-04-28T02:42:21.512Z,45.27
2023-04-28T02:47:18.934Z,45.77
2023-04-28T02:52:15.656Z,46.18
2023-04-28T02:57:12.168Z,46.52
2023-04-28T03:02:09.286Z,46.60
2023-04-28T03:07:07.719Z,46.44
2023-04-28T03:12:04.538Z,46.88
2023-04-28T03:17:04.464Z,48.00
2023-04-28T03:22:01.235Z,49.51
2023-04-28T03:26:58.505Z,50.85
2023-04-28T03:31:55.466Z,50.94
2023-04-28T03:36:52.295Z,51.87
2023-04-28T03:41:55.407Z,52.11
2023-04-28T03:47:15.521Z,50.85
2023-04-28T03:52:12.309Z,50.02
2023-04-28T03:57:09.395Z,49.91
2023-04-28T04:02:06.136Z,50.32
2023-04-28T04:07:04.028Z,52.09
2023-04-28T04:12:01.237Z,53.92
2023-04-28T04:16:58.101Z,56.92
2023-04-28T04:21:55.205Z,57.02
2023-04-28T04:26:52.941Z,56.00
2023-04-28T04:32:15.671Z,57.23
2023-04-28T04:37:12.804Z,58.48
2023-04-28T04:42:24.773Z,58.22
2023-04-28T04:47:44.807Z,58.97
2023-04-28T04:52:41.781Z,59.56
2023-04-28T04:57:39.620Z,59.87
2023-04-28T05:02:36.506Z,61.75
2023-04-28T05:07:35.207Z,62.74
2023-04-28T05:12:32.190Z,60.86
2023-04-28T05:17:30.924Z,60.36
2023-04-28T05:22:27.853Z,62.41
2023-04-28T05:27:24.706Z,63.78
2023-04-28T05:32:22.033Z,62.18
2023-04-28T05:37:19.607Z,60.75
2023-04-28T05:42:16.329Z,62.00
2023-04-28T05:47:13.149Z,59.90
2023-04-28T05:52:10.460Z,60.02
2023-04-28T05:57:08.078Z,59.19
2023-04-28T06:02:05.238Z,56.55
2023-04-28T06:07:02.405Z,55.89
2023-04-28T06:11:59.580Z,58.24
2023-04-28T06:17:00.370Z,55.77
2023-04-28T06:21:57.621Z,55.73
2023-04-28T06:26:54.551Z,56.45
2023-04-28T06:31:52.059Z,56.55
2023-04-28T06:36:49.998Z,54.01
2023-04-28T06:41:47.236Z,50.58
2023-04-28T06:46:47.236Z,50.46
2023-04-28T06:51:44.181Z,49.26
2023-04-28T06:56:41.862Z,47.95
2023-04-28T07:01:39.101Z,47.71
2023-04-28T07:06:36.096Z,45.31
2023-04-28T07:11:33.005Z,44.33
2023-04-28T07:16:30.764Z,42.35
2023-04-28T07:21:28.104Z,40.34
2023-04-28T07:26:25.022Z,40.86
2023-04-28T07:31:22.315Z,40.69
2023-04-28T07:36:20.022Z,39.01
2023-04-28T07:41:18.078Z,40.42
2023-04-28T07:46:15.251Z,40.77
2023-04-28T07:51:12.127Z,35.80
2023-04-28T07:56:09.971Z,36.50
2023-04-28T08:01:06.789Z,38.09
2023-04-28T08:06:05.716Z,33.96
2023-04-28T08:11:02.688Z,35.57
2023-04-28T08:16:00.359Z,34.40
2023-04-28T08:20:57.276Z,35.00
2023-04-28T08:25:54.553Z,34.78
2023-04-28T08:30:51.965Z,33.55
2023-04-28T08:35:50.009Z,35.68
2023-04-28T08:40:48.152Z,33.91
2023-04-28T08:45:45.595Z,34.85
2023-04-28T08:50:44.272Z,33.97
2023-04-28T08:55:45.318Z,33.00
2023-04-28T09:00:42.299Z,34.22
2023-04-28T09:05:39.528Z,33.91
2023-04-28T09:10:37.675Z,33.23
2023-04-28T09:15:36.049Z,32.02
2023-04-28T09:20:34.107Z,33.15
2023-04-28T09:25:32.473Z,33.73
2023-04-28T09:30:40.231Z,33.33
2023-04-28T09:35:40.570Z,32.23
2023-04-28T09:40:49.507Z,32.98
2023-04-28T09:45:46.930Z,31.87
2023-04-28T09:50:49.593Z,33.72
2023-04-28T09:55:47.458Z,33.95
2023-04-28T10:00:44.442Z,32.43
2023-04-28T10:05:42.274Z,32.99
2023-04-28T10:10:39.333Z,32.90
2023-04-28T10:15:36.867Z,32.89
2023-04-28T10:20:37.185Z,32.18
2023-04-28T10:25:36.065Z,32.81
2023-04-28T10:30:36.612Z,33.37
2023-04-28T10:35:44.163Z,32.86
2023-04-28T10:40:47.765Z,32.89
2023-04-28T10:46:06.448Z,33.24
2023-04-28T10:51:23.914Z,34.06
2023-04-28T10:56:24.076Z,33.87
2023-04-28T11:01:29.013Z,33.64
2023-04-28T11:06:27.894Z,33.96
2023-04-28T11:11:26.162Z,33.12
2023-04-28T11:16:24.451Z,34.14
2023-04-28T11:21:21.810Z,33.58
2023-04-28T11:31:39.882Z,34.02
2023-04-28T11:36:39.727Z,34.09
2023-04-28T11:41:39.982Z,33.86
2023-04-28T11:46:44.627Z,34.36
2023-04-28T11:51:44.500Z,33.76
2023-04-28T11:56:42.857Z,34.15
2023-04-28T12:01:49.137Z,34.12
2023-04-28T12:07:00.748Z,33.91
2023-04-28T12:12:01.797Z,33.80
2023-04-28T12:16:59.008Z,33.94
2023-04-28T12:22:07.586Z,32.60
2023-04-28T12:27:15.001Z,34.05
2023-04-28T12:32:15.282Z,34.17
2023-04-28T12:37:13.782Z,34.30
2023-04-28T12:42:12.644Z,33.50
2023-04-28T12:47:13.707Z,31.87
2023-04-28T12:52:11.074Z,33.57
2023-04-28T12:57:09.078Z,33.32
2023-04-28T13:02:06.101Z,33.74
2023-04-28T13:07:03.396Z,32.94
2023-04-28T13:12:00.537Z,33.34
2023-04-28T13:16:58.425Z,32.34
2023-04-28T13:21:55.412Z,33.95
2023-04-28T13:26:52.335Z,32.67
2023-04-28T13:31:49.483Z,32.61
2023-04-28T13:36:47.695Z,33.44
2023-04-28T13:41:44.655Z,33.03
2023-04-28T13:46:42.149Z,33.01
2023-04-28T13:51:39.254Z,33.68
2023-04-28T13:56:36.995Z,33.74
2023-04-28T14:01:33.898Z,33.22
2023-04-28T14:06:31.492Z,33.67
2023-04-28T14:11:29.857Z,34.11
2023-04-28T14:16:28.510Z,33.47
2023-04-28T14:21:26.086Z,32.72
2023-04-28T14:26:23.783Z,32.99
2023-04-28T14:31:21.073Z,33.42
2023-04-28T14:36:18.643Z,34.03
2023-04-28T14:41:15.797Z,33.29
2023-04-28T14:46:12.776Z,32.74
2023-04-28T14:51:10.092Z,33.13
2023-04-28T14:56:18.745Z,32.83
2023-04-28T15:01:18.610Z,33.49
2023-04-28T15:06:15.689Z,33.28
2023-04-28T15:11:13.193Z,33.45
2023-04-28T15:16:10.313Z,33.67
2023-04-28T15:21:08.003Z,32.67
2023-04-28T15:26:04.867Z,32.39
2023-04-28T15:31:02.431Z,32.88
2023-04-28T15:35:59.067Z,32.59
2023-04-28T15:40:56.019Z,32.47
2023-04-28T15:45:52.996Z,32.74
2023-04-28T15:50:53.192Z,33.17
2023-04-28T15:55:50.338Z,33.32
2023-04-28T16:00:48.105Z,33.08
2023-04-28T16:05:45.226Z,33.04
2023-04-28T16:10:42.636Z,33.38
2023-04-28T16:15:41.207Z,33.94
2023-04-28T16:20:38.003Z,34.14
2023-04-28T16:25:35.334Z,34.10
2023-04-28T16:30:33.493Z,34.00
2023-04-28T16:35:30.305Z,34.31
2023-04-28T16:40:26.966Z,34.44
2023-04-28T16:45:23.717Z,34.55
2023-04-28T16:50:21.291Z,35.02
2023-04-28T16:55:18.252Z,34.82
2023-04-28T17:00:15.515Z,35.25
2023-04-28T17:05:12.477Z,35.92
2023-04-28T17:10:10.824Z,37.19
2023-04-28T17:15:08.016Z,37.09
2023-04-28T17:20:05.405Z,37.74
2023-04-28T17:25:02.263Z,37.94
2023-04-28T17:29:59.884Z,38.50
2023-04-28T17:34:56.838Z,38.46
2023-04-28T17:39:53.746Z,38.00
2023-04-28T17:44:51.271Z,38.11
2023-04-28T17:49:48.902Z,38.57
2023-04-28T17:54:45.916Z,39.18
2023-04-28T17:59:44.410Z,39.71
2023-04-28T18:04:41.457Z,40.00
2023-04-28T18:09:39.203Z,40.18
2023-04-28T18:14:35.934Z,41.15
2023-04-28T18:19:32.815Z,41.50
2023-04-28T18:24:29.733Z,42.45
2023-04-28T18:29:29.289Z,42.88
2023-04-28T18:34:26.782Z,42.75
2023-04-28T18:39:23.607Z,42.45
2023-04-28T18:44:20.509Z,41.86
2023-04-28T18:49:18.213Z,42.75
2023-04-28T18:54:15.748Z,42.35
2023-04-28T18:59:13.384Z,42.80
2023-04-28T19:04:14.684Z,42.56
2023-04-28T19:09:13.799Z,42.78
2023-04-28T19:14:10.444Z,43.33
2023-04-28T19:19:09.000Z,43.11
2023-04-28T19:24:06.684Z,42.84
2023-04-28T19:29:04.170Z,43.50
2023-04-28T19:34:00.856Z,43.07
2023-04-28T19:38:57.736Z,43.98
2023-04-28T19:43:55.618Z,44.68
2023-04-28T19:48:53.248Z,44.81
2023-04-28T19:53:51.744Z,44.19
2023-04-28T19:58:48.557Z,44.20
2023-04-28T20:03:45.403Z,43.70
2023-04-28T20:08:43.317Z,43.39
2023-04-28T20:13:40.310Z,43.27
2023-04-28T20:18:37.615Z,43.61
2023-04-28T20:23:34.376Z,43.38
2023-04-28T20:28:31.921Z,43.17
2023-04-28T20:33:28.994Z,43.08
2023-04-28T20:38:25.760Z,42.69
2023-04-28T20:43:23.605Z,42.62
2023-04-28T20:48:21.314Z,42.65
2023-04-28T20:53:18.902Z,42.83
2023-04-28T20:58:18.616Z,42.49
2023-04-28T21:03:16.118Z,42.93
2023-04-28T21:08:13.501Z,42.61
2023-04-28T21:13:10.131Z,43.35
2023-04-28T21:18:06.839Z,42.95
2023-04-28T21:23:03.750Z,43.02
2023-04-28T21:28:01.866Z,43.14
2023-04-28T21:32:58.833Z,44.03
2023-04-28T21:37:55.847Z,50.31
2023-04-28T21:42:52.832Z,48.17
2023-04-28T21:47:50.216Z,46.90
2023-04-28T21:52:46.895Z,46.97
2023-04-28T21:57:43.521Z,45.96
2023-04-28T22:02:40.791Z,46.63
2023-04-28T22:07:38.342Z,46.06
2023-04-28T22:12:35.011Z,46.48
2023-04-28T22:17:33.141Z,46.22
2023-04-28T22:22:30.383Z,46.30
2023-04-28T22:27:27.739Z,45.77
2023-04-28T22:32:24.499Z,45.45
2023-04-28T22:37:21.126Z,45.06
2023-04-28T22:42:17.889Z,45.04
2023-04-28T22:47:15.653Z,45.47
2023-04-28T22:52:12.239Z,46.42
2023-04-28T22:57:08.798Z,46.67
2023-04-28T23:02:05.744Z,47.19
2023-04-28T23:07:03.002Z,46.87
2023-04-28T23:11:59.583Z,47.12
2023-04-28T23:16:56.265Z,46.95
2023-04-28T23:21:53.909Z,46.56
2023-04-28T23:26:51.280Z,45.93
2023-04-28T23:31:51.908Z,45.19
2023-04-28T23:36:48.882Z,45.87
2023-04-28T23:41:47.276Z,46.06
2023-04-28T23:46:44.721Z,45.98
2023-04-28T23:51:41.452Z,45.82
2023-04-28T23:56:38.309Z,44.66
